Orbital elements of ARIANE 5 R/B
| Launched | 9 December 1999 |
| Flight ended | – |
| Launch site | Europe's Spaceport, Kourou, French Guiana |
| Owner | France |
| NORAD ID | 25990 |
| Date fetched |
Epoch osculation |
Inc. [°] |
Ecc. | RA asc node [hr] |
Arg Peri. [°] |
Mean anom [°] |
Mean motion [rev/day] |
Abs. mag |
| Date fetched |
Epoch osculation |
Inc. [°] |
Ecc. | RA asc node [hr] |
Arg Peri. [°] |
Mean anom [°] |
Mean motion [rev/day] |
Abs. mag |
| 2026 May 08 17:57 | 2026 May 06 15:06:38 | 71.3524 | 0.61181 | 20.3199 | 111.5000 | 359.4711 | 0.55303 | 4.243 |
| 2026 May 07 17:58 | 2026 May 06 15:06:38 | 71.3524 | 0.61181 | 20.3199 | 111.5000 | 359.4711 | 0.55303 | 4.243 |
| 2026 May 06 17:57 | 2026 May 06 15:06:38 | 71.3524 | 0.61181 | 20.3199 | 111.5000 | 359.4711 | 0.55303 | 4.243 |
| 2026 May 05 17:57 | 2026 May 06 15:06:38 | 71.3524 | 0.61181 | 20.3199 | 111.5000 | 359.4711 | 0.55303 | 4.243 |
| 2026 May 04 17:57 | 2026 Apr 29 09:32:09 | 71.3378 | 0.61315 | 20.3277 | 111.4949 | 359.4711 | 0.55303 | 4.243 |
| 2026 May 03 17:57 | 2026 Apr 29 09:32:09 | 71.3378 | 0.61315 | 20.3277 | 111.4949 | 359.4711 | 0.55303 | 4.243 |
| 2026 May 02 17:57 | 2026 Apr 29 09:32:09 | 71.3378 | 0.61315 | 20.3277 | 111.4949 | 359.4711 | 0.55303 | 4.243 |
| 2026 May 01 17:56 | 2026 Apr 29 09:32:09 | 71.3378 | 0.61315 | 20.3277 | 111.4949 | 359.4711 | 0.55303 | 4.243 |
| 2026 Apr 30 17:56 | 2026 Apr 29 09:32:09 | 71.3378 | 0.61315 | 20.3277 | 111.4949 | 359.4711 | 0.55303 | 4.243 |
| 2026 Apr 29 17:57 | 2026 Apr 25 18:44:50 | 71.3345 | 0.61380 | 20.3311 | 111.4903 | 359.4711 | 0.55303 | 4.243 |
| 2026 Apr 28 17:56 | 2026 Apr 25 18:44:50 | 71.3345 | 0.61380 | 20.3311 | 111.4903 | 359.4711 | 0.55303 | 4.243 |
| 2026 Apr 27 17:58 | 2026 Apr 25 18:44:50 | 71.3345 | 0.61380 | 20.3311 | 111.4903 | 359.4711 | 0.55303 | 4.243 |
| 2026 Apr 26 17:58 | 2026 Apr 25 18:44:50 | 71.3345 | 0.61380 | 20.3311 | 111.4903 | 359.4711 | 0.55303 | 4.243 |
| 2026 Apr 25 17:58 | 2026 Apr 25 18:44:50 | 71.3345 | 0.61380 | 20.3311 | 111.4903 | 359.4711 | 0.55303 | 4.243 |
| 2026 Apr 24 17:59 | 2026 Apr 25 18:44:50 | 71.3345 | 0.61380 | 20.3311 | 111.4903 | 359.4711 | 0.55303 | 4.243 |
| 2026 Apr 23 17:57 | 2026 Apr 20 08:31:36 | 71.3267 | 0.61470 | 20.3362 | 111.4576 | 359.4711 | 0.55303 | 4.243 |
| 2026 Apr 22 17:57 | 2026 Apr 20 08:31:36 | 71.3267 | 0.61470 | 20.3362 | 111.4576 | 359.4711 | 0.55303 | 4.243 |
| 2026 Apr 21 17:57 | 2026 Apr 20 08:31:36 | 71.3267 | 0.61470 | 20.3362 | 111.4576 | 359.4711 | 0.55303 | 4.243 |
| 2026 Apr 20 17:57 | 2026 Apr 20 08:31:36 | 71.3267 | 0.61470 | 20.3362 | 111.4576 | 359.4711 | 0.55303 | 4.243 |
| 2026 Apr 19 17:58 | 2026 Apr 20 08:31:36 | 71.3267 | 0.61470 | 20.3362 | 111.4576 | 359.4711 | 0.55303 | 4.243 |
| 2026 Apr 18 17:56 | 2026 Apr 14 22:22:17 | 71.3190 | 0.61548 | 20.3420 | 111.4282 | 359.4711 | 0.55303 | 4.243 |
| 2026 Apr 16 17:57 | 2026 Apr 14 22:22:17 | 71.3190 | 0.61548 | 20.3420 | 111.4282 | 359.4711 | 0.55303 | 4.243 |
| 2026 Apr 14 17:57 | 2026 Apr 14 22:22:17 | 71.3190 | 0.61548 | 20.3420 | 111.4282 | 359.4711 | 0.55303 | 4.243 |
| 2026 Apr 13 17:57 | 2026 Apr 14 22:22:17 | 71.3190 | 0.61548 | 20.3420 | 111.4282 | 359.4711 | 0.55303 | 4.243 |
| 2026 Apr 12 17:57 | 2026 Apr 04 01:59:27 | 71.2936 | 0.61750 | 20.3544 | 111.4205 | 359.4711 | 0.55303 | 4.243 |
| 2026 Apr 11 17:57 | 2026 Apr 04 01:59:27 | 71.2936 | 0.61750 | 20.3544 | 111.4205 | 359.4711 | 0.55303 | 4.243 |